sensor_id;sensor_type;location;lat;lon;timestamp;P1;durP1;ratioP1;P2;durP2;ratioP2
42884;SDS011;28534;48.100;11.584;2022-07-06T00:06:23;2.60;;;2.40;;
42884;SDS011;28534;48.100;11.584;2022-07-06T00:16:26;3.85;;;2.30;;
42884;SDS011;28534;48.100;11.584;2022-07-06T00:26:28;2.38;;;2.17;;
42884;SDS011;28534;48.100;11.584;2022-07-06T00:36:31;3.17;;;2.00;;
42884;SDS011;28534;48.100;11.584;2022-07-06T00:46:33;2.38;;;2.17;;
42884;SDS011;28534;48.100;11.584;2022-07-06T00:56:36;2.55;;;2.35;;
42884;SDS011;28534;48.100;11.584;2022-07-06T01:06:38;2.40;;;2.20;;
42884;SDS011;28534;48.100;11.584;2022-07-06T01:16:42;2.20;;;2.00;;
42884;SDS011;28534;48.100;11.584;2022-07-06T01:26:45;2.50;;;2.10;;
42884;SDS011;28534;48.100;11.584;2022-07-06T01:36:47;2.65;;;2.00;;
42884;SDS011;28534;48.100;11.584;2022-07-06T01:46:51;2.38;;;2.17;;
42884;SDS011;28534;48.100;11.584;2022-07-06T01:56:52;2.25;;;2.03;;
42884;SDS011;28534;48.100;11.584;2022-07-06T02:06:55;2.30;;;2.10;;
42884;SDS011;28534;48.100;11.584;2022-07-06T02:16:57;2.25;;;1.98;;
42884;SDS011;28534;48.100;11.584;2022-07-06T02:27:00;2.25;;;2.00;;
42884;SDS011;28534;48.100;11.584;2022-07-06T02:37:02;2.10;;;1.90;;
42884;SDS011;28534;48.100;11.584;2022-07-06T02:47:06;2.30;;;2.10;;
42884;SDS011;28534;48.100;11.584;2022-07-06T02:57:07;1.92;;;1.83;;
42884;SDS011;28534;48.100;11.584;2022-07-06T03:07:11;2.08;;;1.90;;
42884;SDS011;28534;48.100;11.584;2022-07-06T03:17:12;3.67;;;2.00;;
42884;SDS011;28534;48.100;11.584;2022-07-06T03:27:16;2.03;;;1.80;;
42884;SDS011;28534;48.100;11.584;2022-07-06T03:37:17;1.88;;;1.70;;
42884;SDS011;28534;48.100;11.584;2022-07-06T03:47:21;1.83;;;1.73;;
42884;SDS011;28534;48.100;11.584;2022-07-06T03:57:22;2.25;;;1.80;;
42884;SDS011;28534;48.100;11.584;2022-07-06T04:07:27;2.58;;;1.80;;
42884;SDS011;28534;48.100;11.584;2022-07-06T04:17:28;2.08;;;1.60;;
42884;SDS011;28534;48.100;11.584;2022-07-06T04:27:49;3.35;;;1.70;;
42884;SDS011;28534;48.100;11.584;2022-07-06T04:37:51;1.60;;;1.50;;
42884;SDS011;28534;48.100;11.584;2022-07-06T04:47:54;2.47;;;1.85;;
42884;SDS011;28534;48.100;11.584;2022-07-06T04:57:56;5.47;;;2.10;;
42884;SDS011;28534;48.100;11.584;2022-07-06T05:07:59;5.32;;;2.08;;
42884;SDS011;28534;48.100;11.584;2022-07-06T05:18:01;3.40;;;2.00;;
42884;SDS011;28534;48.100;11.584;2022-07-06T05:28:04;2.83;;;2.00;;
42884;SDS011;28534;48.100;11.584;2022-07-06T05:38:06;4.10;;;2.08;;
42884;SDS011;28534;48.100;11.584;2022-07-06T05:48:09;3.10;;;2.22;;
42884;SDS011;28534;48.100;11.584;2022-07-06T05:58:28;1.60;;;1.50;;
42884;SDS011;28534;48.100;11.584;2022-07-06T06:08:31;1.98;;;1.80;;
42884;SDS011;28534;48.100;11.584;2022-07-06T06:18:33;2.35;;;1.95;;
42884;SDS011;28534;48.100;11.584;2022-07-06T06:28:37;1.98;;;1.70;;
42884;SDS011;28534;48.100;11.584;2022-07-06T06:38:38;3.13;;;1.67;;
42884;SDS011;28534;48.100;11.584;2022-07-06T06:48:42;3.13;;;2.00;;
42884;SDS011;28534;48.100;11.584;2022-07-06T06:58:43;2.00;;;1.75;;
42884;SDS011;28534;48.100;11.584;2022-07-06T07:08:46;2.17;;;1.90;;
42884;SDS011;28534;48.100;11.584;2022-07-06T07:18:48;2.28;;;1.90;;
42884;SDS011;28534;48.100;11.584;2022-07-06T07:28:52;2.10;;;1.83;;
42884;SDS011;28534;48.100;11.584;2022-07-06T07:38:53;2.58;;;1.95;;
42884;SDS011;28534;48.100;11.584;2022-07-06T07:48:57;2.63;;;2.00;;
42884;SDS011;28534;48.100;11.584;2022-07-06T07:58:58;2.88;;;2.15;;
42884;SDS011;28534;48.100;11.584;2022-07-06T08:09:01;3.65;;;2.25;;
42884;SDS011;28534;48.100;11.584;2022-07-06T08:19:05;6.07;;;2.20;;
42884;SDS011;28534;48.100;11.584;2022-07-06T08:29:08;3.72;;;2.53;;
42884;SDS011;28534;48.100;11.584;2022-07-06T08:39:09;3.35;;;2.30;;
42884;SDS011;28534;48.100;11.584;2022-07-06T08:49:16;4.85;;;2.30;;
42884;SDS011;28534;48.100;11.584;2022-07-06T08:59:18;4.13;;;2.92;;
42884;SDS011;28534;48.100;11.584;2022-07-06T09:09:23;2.70;;;2.30;;
42884;SDS011;28534;48.100;11.584;2022-07-06T09:19:25;4.30;;;2.83;;
42884;SDS011;28534;48.100;11.584;2022-07-06T09:29:29;3.85;;;3.10;;
42884;SDS011;28534;48.100;11.584;2022-07-06T09:39:31;4.13;;;2.60;;
42884;SDS011;28534;48.100;11.584;2022-07-06T09:49:34;3.78;;;2.92;;
42884;SDS011;28534;48.100;11.584;2022-07-06T09:59:37;3.47;;;2.55;;
42884;SDS011;28534;48.100;11.584;2022-07-06T10:09:40;4.47;;;3.20;;
42884;SDS011;28534;48.100;11.584;2022-07-06T10:19:42;3.15;;;2.80;;
42884;SDS011;28534;48.100;11.584;2022-07-06T10:29:46;3.53;;;2.80;;
42884;SDS011;28534;48.100;11.584;2022-07-06T10:39:48;3.10;;;2.70;;
42884;SDS011;28534;48.100;11.584;2022-07-06T10:50:09;4.18;;;3.00;;
42884;SDS011;28534;48.100;11.584;2022-07-06T11:00:12;4.07;;;2.97;;
42884;SDS011;28534;48.100;11.584;2022-07-06T11:10:16;4.65;;;2.67;;
42884;SDS011;28534;48.100;11.584;2022-07-06T11:20:18;4.60;;;2.40;;
42884;SDS011;28534;48.100;11.584;2022-07-06T11:30:22;3.65;;;2.78;;
42884;SDS011;28534;48.100;11.584;2022-07-06T11:40:24;5.15;;;3.10;;
42884;SDS011;28534;48.100;11.584;2022-07-06T11:50:27;4.40;;;2.70;;
42884;SDS011;28534;48.100;11.584;2022-07-06T12:00:29;4.72;;;2.65;;
42884;SDS011;28534;48.100;11.584;2022-07-06T12:10:32;3.60;;;2.67;;
42884;SDS011;28534;48.100;11.584;2022-07-06T12:20:35;3.35;;;2.60;;
42884;SDS011;28534;48.100;11.584;2022-07-06T12:30:39;3.80;;;2.60;;
42884;SDS011;28534;48.100;11.584;2022-07-06T12:40:46;2.50;;;2.30;;
42884;SDS011;28534;48.100;11.584;2022-07-06T12:50:49;2.60;;;2.40;;
42884;SDS011;28534;48.100;11.584;2022-07-06T13:00:51;4.55;;;2.60;;
42884;SDS011;28534;48.100;11.584;2022-07-06T13:10:54;5.82;;;2.42;;
42884;SDS011;28534;48.100;11.584;2022-07-06T13:20:56;4.10;;;2.30;;
42884;SDS011;28534;48.100;11.584;2022-07-06T13:30:59;3.60;;;2.30;;
42884;SDS011;28534;48.100;11.584;2022-07-06T13:41:01;2.78;;;2.00;;
42884;SDS011;28534;48.100;11.584;2022-07-06T13:51:04;2.25;;;2.15;;
42884;SDS011;28534;48.100;11.584;2022-07-06T14:01:06;2.50;;;2.30;;
42884;SDS011;28534;48.100;11.584;2022-07-06T14:11:09;2.63;;;2.30;;
42884;SDS011;28534;48.100;11.584;2022-07-06T14:21:12;4.07;;;2.70;;
42884;SDS011;28534;48.100;11.584;2022-07-06T14:31:17;3.00;;;2.70;;
42884;SDS011;28534;48.100;11.584;2022-07-06T14:41:19;6.50;;;2.83;;
42884;SDS011;28534;48.100;11.584;2022-07-06T14:51:22;4.38;;;2.53;;
42884;SDS011;28534;48.100;11.584;2022-07-06T15:01:25;3.53;;;2.70;;
42884;SDS011;28534;48.100;11.584;2022-07-06T15:11:28;4.50;;;3.00;;
42884;SDS011;28534;48.100;11.584;2022-07-06T15:21:30;3.90;;;2.88;;
42884;SDS011;28534;48.100;11.584;2022-07-06T15:31:33;5.80;;;3.05;;
42884;SDS011;28534;48.100;11.584;2022-07-06T15:41:35;5.05;;;3.38;;
42884;SDS011;28534;48.100;11.584;2022-07-06T15:51:38;5.55;;;3.00;;
42884;SDS011;28534;48.100;11.584;2022-07-06T16:01:40;4.20;;;2.90;;
42884;SDS011;28534;48.100;11.584;2022-07-06T16:11:43;3.55;;;3.20;;
42884;SDS011;28534;48.100;11.584;2022-07-06T16:21:45;6.38;;;3.17;;
42884;SDS011;28534;48.100;11.584;2022-07-06T16:31:48;5.40;;;3.15;;
42884;SDS011;28534;48.100;11.584;2022-07-06T16:41:50;4.75;;;2.97;;
42884;SDS011;28534;48.100;11.584;2022-07-06T16:51:53;4.30;;;3.17;;
42884;SDS011;28534;48.100;11.584;2022-07-06T17:01:55;3.72;;;2.60;;
42884;SDS011;28534;48.100;11.584;2022-07-06T17:11:59;2.50;;;2.10;;
42884;SDS011;28534;48.100;11.584;2022-07-06T17:22:00;3.90;;;2.00;;
42884;SDS011;28534;48.100;11.584;2022-07-06T17:32:04;3.45;;;2.10;;
42884;SDS011;28534;48.100;11.584;2022-07-06T17:42:07;4.55;;;2.20;;
42884;SDS011;28534;48.100;11.584;2022-07-06T17:52:11;3.05;;;2.17;;
42884;SDS011;28534;48.100;11.584;2022-07-06T18:02:15;3.88;;;2.40;;
42884;SDS011;28534;48.100;11.584;2022-07-06T18:12:18;4.28;;;2.50;;
42884;SDS011;28534;48.100;11.584;2022-07-06T18:22:20;2.88;;;2.10;;
42884;SDS011;28534;48.100;11.584;2022-07-06T18:32:23;10.18;;;2.92;;
42884;SDS011;28534;48.100;11.584;2022-07-06T18:42:25;4.55;;;2.70;;
42884;SDS011;28534;48.100;11.584;2022-07-06T18:52:28;2.90;;;2.40;;
42884;SDS011;28534;48.100;11.584;2022-07-06T19:02:34;4.03;;;2.58;;
42884;SDS011;28534;48.100;11.584;2022-07-06T19:12:37;3.60;;;2.50;;
42884;SDS011;28534;48.100;11.584;2022-07-06T19:22:39;2.85;;;2.58;;
42884;SDS011;28534;48.100;11.584;2022-07-06T19:32:43;3.58;;;3.15;;
42884;SDS011;28534;48.100;11.584;2022-07-06T19:42:45;3.30;;;2.45;;
42884;SDS011;28534;48.100;11.584;2022-07-06T19:52:48;2.58;;;2.38;;
42884;SDS011;28534;48.100;11.584;2022-07-06T20:02:50;2.60;;;2.30;;
42884;SDS011;28534;48.100;11.584;2022-07-06T20:12:53;3.88;;;2.20;;
42884;SDS011;28534;48.100;11.584;2022-07-06T20:22:55;3.10;;;2.17;;
42884;SDS011;28534;48.100;11.584;2022-07-06T20:32:58;3.92;;;2.47;;
42884;SDS011;28534;48.100;11.584;2022-07-06T20:43:00;2.97;;;2.30;;
42884;SDS011;28534;48.100;11.584;2022-07-06T20:53:03;2.70;;;2.50;;
42884;SDS011;28534;48.100;11.584;2022-07-06T21:03:06;4.03;;;2.58;;
42884;SDS011;28534;48.100;11.584;2022-07-06T21:13:09;3.05;;;2.60;;
42884;SDS011;28534;48.100;11.584;2022-07-06T21:23:11;3.83;;;2.65;;
42884;SDS011;28534;48.100;11.584;2022-07-06T21:33:14;3.70;;;2.80;;
42884;SDS011;28534;48.100;11.584;2022-07-06T21:43:16;3.60;;;2.80;;
42884;SDS011;28534;48.100;11.584;2022-07-06T21:53:19;4.20;;;2.90;;
42884;SDS011;28534;48.100;11.584;2022-07-06T22:03:21;3.15;;;2.85;;
42884;SDS011;28534;48.100;11.584;2022-07-06T22:13:24;3.08;;;2.78;;
42884;SDS011;28534;48.100;11.584;2022-07-06T22:23:44;2.92;;;2.60;;
42884;SDS011;28534;48.100;11.584;2022-07-06T22:33:47;2.60;;;2.40;;
42884;SDS011;28534;48.100;11.584;2022-07-06T22:43:49;3.75;;;2.40;;
42884;SDS011;28534;48.100;11.584;2022-07-06T22:53:52;3.88;;;2.17;;
42884;SDS011;28534;48.100;11.584;2022-07-06T23:03:54;3.72;;;2.00;;
42884;SDS011;28534;48.100;11.584;2022-07-06T23:13:57;2.13;;;1.90;;
42884;SDS011;28534;48.100;11.584;2022-07-06T23:23:59;3.03;;;2.10;;
42884;SDS011;28534;48.100;11.584;2022-07-06T23:34:02;3.63;;;2.20;;
42884;SDS011;28534;48.100;11.584;2022-07-06T23:44:04;2.40;;;2.20;;
42884;SDS011;28534;48.100;11.584;2022-07-06T23:54:07;3.95;;;2.25;;
